sensor_id;sensor_type;location;lat;lon;timestamp;temperature;humidity
23267;DHT22;11802;53.160;8.214;2023-04-07T00:01:17;8.40;1.00
23267;DHT22;11802;53.160;8.214;2023-04-07T00:03:43;8.40;1.00
23267;DHT22;11802;53.160;8.214;2023-04-07T00:06:08;8.30;1.00
23267;DHT22;11802;53.160;8.214;2023-04-07T00:08:34;8.30;1.00
23267;DHT22;11802;53.160;8.214;2023-04-07T00:11:00;8.30;1.00
23267;DHT22;11802;53.160;8.214;2023-04-07T00:13:25;8.20;1.00
23267;DHT22;11802;53.160;8.214;2023-04-07T00:15:51;8.10;1.00
23267;DHT22;11802;53.160;8.214;2023-04-07T00:18:17;8.00;1.00
23267;DHT22;11802;53.160;8.214;2023-04-07T00:20:42;8.00;1.00
23267;DHT22;11802;53.160;8.214;2023-04-07T00:23:08;7.90;1.00
23267;DHT22;11802;53.160;8.214;2023-04-07T00:25:33;7.90;1.00
23267;DHT22;11802;53.160;8.214;2023-04-07T00:27:59;7.80;1.00
23267;DHT22;11802;53.160;8.214;2023-04-07T00:30:24;7.80;1.00
23267;DHT22;11802;53.160;8.214;2023-04-07T00:32:51;7.80;1.00
23267;DHT22;11802;53.160;8.214;2023-04-07T00:35:17;7.70;1.00
23267;DHT22;11802;53.160;8.214;2023-04-07T00:37:42;7.60;1.00
23267;DHT22;11802;53.160;8.214;2023-04-07T00:40:08;7.50;3.40
23267;DHT22;11802;53.160;8.214;2023-04-07T00:42:34;7.50;7.40
23267;DHT22;11802;53.160;8.214;2023-04-07T00:45:00;7.40;13.00
23267;DHT22;11802;53.160;8.214;2023-04-07T00:47:25;7.40;17.50
23267;DHT22;11802;53.160;8.214;2023-04-07T00:49:51;7.30;23.00
23267;DHT22;11802;53.160;8.214;2023-04-07T00:52:18;7.30;28.00
23267;DHT22;11802;53.160;8.214;2023-04-07T00:54:44;7.30;32.20
23267;DHT22;11802;53.160;8.214;2023-04-07T00:57:11;7.20;45.20
23267;DHT22;11802;53.160;8.214;2023-04-07T00:59:37;7.20;66.00
23267;DHT22;11802;53.160;8.214;2023-04-07T01:02:09;7.30;57.20
23267;DHT22;11802;53.160;8.214;2023-04-07T01:04:50;7.20;46.00
23267;DHT22;11802;53.160;8.214;2023-04-07T01:07:34;7.20;29.70
23267;DHT22;11802;53.160;8.214;2023-04-07T01:10:04;7.10;1.00
23267;DHT22;11802;53.160;8.214;2023-04-07T01:12:38;7.10;1.00
23267;DHT22;11802;53.160;8.214;2023-04-07T01:15:10;7.10;1.00
23267;DHT22;11802;53.160;8.214;2023-04-07T01:17:41;7.00;1.00
23267;DHT22;11802;53.160;8.214;2023-04-07T01:20:12;7.00;1.00
23267;DHT22;11802;53.160;8.214;2023-04-07T01:22:55;7.00;1.00
23267;DHT22;11802;53.160;8.214;2023-04-07T01:25:44;6.90;1.00
23267;DHT22;11802;53.160;8.214;2023-04-07T01:28:27;7.00;1.00
23267;DHT22;11802;53.160;8.214;2023-04-07T01:30:56;7.00;99.90
23267;DHT22;11802;53.160;8.214;2023-04-07T01:33:23;6.90;99.90
23267;DHT22;11802;53.160;8.214;2023-04-07T01:35:49;6.90;99.90
23267;DHT22;11802;53.160;8.214;2023-04-07T01:38:16;7.00;1.00
23267;DHT22;11802;53.160;8.214;2023-04-07T01:40:43;6.90;1.00
23267;DHT22;11802;53.160;8.214;2023-04-07T01:43:08;6.90;1.00
23267;DHT22;11802;53.160;8.214;2023-04-07T01:45:36;6.90;1.00
23267;DHT22;11802;53.160;8.214;2023-04-07T01:48:04;6.90;1.00
23267;DHT22;11802;53.160;8.214;2023-04-07T01:50:30;6.80;99.90
23267;DHT22;11802;53.160;8.214;2023-04-07T01:52:56;6.80;99.90
23267;DHT22;11802;53.160;8.214;2023-04-07T01:55:22;6.80;99.90
23267;DHT22;11802;53.160;8.214;2023-04-07T01:57:48;6.70;1.00
23267;DHT22;11802;53.160;8.214;2023-04-07T02:00:13;6.60;1.00
23267;DHT22;11802;53.160;8.214;2023-04-07T02:02:43;6.60;1.00
23267;DHT22;11802;53.160;8.214;2023-04-07T02:05:11;6.50;99.90
23267;DHT22;11802;53.160;8.214;2023-04-07T02:07:45;6.40;1.00
23267;DHT22;11802;53.160;8.214;2023-04-07T02:10:15;6.40;1.00
23267;DHT22;11802;53.160;8.214;2023-04-07T02:12:43;6.30;1.00
23267;DHT22;11802;53.160;8.214;2023-04-07T02:15:12;6.30;1.00
23267;DHT22;11802;53.160;8.214;2023-04-07T02:17:40;6.30;1.00
23267;DHT22;11802;53.160;8.214;2023-04-07T02:20:07;6.20;99.90
23267;DHT22;11802;53.160;8.214;2023-04-07T02:22:34;6.10;1.00
23267;DHT22;11802;53.160;8.214;2023-04-07T02:24:59;6.00;1.00
23267;DHT22;11802;53.160;8.214;2023-04-07T02:27:26;6.00;1.00
23267;DHT22;11802;53.160;8.214;2023-04-07T02:29:52;6.00;1.00
23267;DHT22;11802;53.160;8.214;2023-04-07T02:32:18;5.90;1.00
23267;DHT22;11802;53.160;8.214;2023-04-07T02:34:44;5.90;1.00
23267;DHT22;11802;53.160;8.214;2023-04-07T02:37:09;5.90;99.90
23267;DHT22;11802;53.160;8.214;2023-04-07T02:39:35;5.90;99.90
23267;DHT22;11802;53.160;8.214;2023-04-07T02:42:00;5.90;99.90
23267;DHT22;11802;53.160;8.214;2023-04-07T02:44:26;5.80;13.20
23267;DHT22;11802;53.160;8.214;2023-04-07T02:46:51;5.80;99.90
23267;DHT22;11802;53.160;8.214;2023-04-07T02:49:17;5.80;99.90
23267;DHT22;11802;53.160;8.214;2023-04-07T02:51:42;5.80;69.60
23267;DHT22;11802;53.160;8.214;2023-04-07T02:54:08;5.80;1.00
23267;DHT22;11802;53.160;8.214;2023-04-07T02:56:33;5.70;1.00
23267;DHT22;11802;53.160;8.214;2023-04-07T02:58:59;5.70;1.00
23267;DHT22;11802;53.160;8.214;2023-04-07T03:01:24;5.70;1.00
23267;DHT22;11802;53.160;8.214;2023-04-07T03:03:50;5.70;1.00
23267;DHT22;11802;53.160;8.214;2023-04-07T03:06:15;5.60;1.00
23267;DHT22;11802;53.160;8.214;2023-04-07T03:08:41;5.60;1.00
23267;DHT22;11802;53.160;8.214;2023-04-07T03:11:07;5.60;1.00
23267;DHT22;11802;53.160;8.214;2023-04-07T03:13:32;5.60;1.00
23267;DHT22;11802;53.160;8.214;2023-04-07T03:15:58;5.60;1.00
23267;DHT22;11802;53.160;8.214;2023-04-07T03:18:23;5.60;1.00
23267;DHT22;11802;53.160;8.214;2023-04-07T03:20:51;5.60;1.00
23267;DHT22;11802;53.160;8.214;2023-04-07T03:23:17;6.00;1.00
23267;DHT22;11802;53.160;8.214;2023-04-07T03:25:43;5.70;1.00
23267;DHT22;11802;53.160;8.214;2023-04-07T03:28:09;5.70;99.90
23267;DHT22;11802;53.160;8.214;2023-04-07T03:30:35;5.70;99.90
23267;DHT22;11802;53.160;8.214;2023-04-07T03:33:01;5.70;8.60
23267;DHT22;11802;53.160;8.214;2023-04-07T03:35:26;5.70;1.00
23267;DHT22;11802;53.160;8.214;2023-04-07T03:37:52;5.70;1.00
23267;DHT22;11802;53.160;8.214;2023-04-07T03:40:17;5.70;99.90
23267;DHT22;11802;53.160;8.214;2023-04-07T03:42:44;5.70;1.00
23267;DHT22;11802;53.160;8.214;2023-04-07T03:45:09;5.70;1.00
23267;DHT22;11802;53.160;8.214;2023-04-07T03:47:35;5.70;1.00
23267;DHT22;11802;53.160;8.214;2023-04-07T03:50:01;5.70;99.90
23267;DHT22;11802;53.160;8.214;2023-04-07T03:52:26;5.70;1.00
23267;DHT22;11802;53.160;8.214;2023-04-07T03:54:52;5.70;1.00
23267;DHT22;11802;53.160;8.214;2023-04-07T03:57:18;5.70;1.00
23267;DHT22;11802;53.160;8.214;2023-04-07T03:59:43;5.60;1.00
23267;DHT22;11802;53.160;8.214;2023-04-07T04:02:09;5.60;1.00
23267;DHT22;11802;53.160;8.214;2023-04-07T04:04:35;5.50;83.00
23267;DHT22;11802;53.160;8.214;2023-04-07T04:07:00;5.50;1.00
23267;DHT22;11802;53.160;8.214;2023-04-07T04:09:26;5.50;99.90
23267;DHT22;11802;53.160;8.214;2023-04-07T04:11:51;5.50;1.00
23267;DHT22;11802;53.160;8.214;2023-04-07T04:14:17;5.40;1.00
23267;DHT22;11802;53.160;8.214;2023-04-07T04:16:42;5.40;1.00
23267;DHT22;11802;53.160;8.214;2023-04-07T04:19:08;5.30;9.20
23267;DHT22;11802;53.160;8.214;2023-04-07T04:21:33;5.30;99.90
23267;DHT22;11802;53.160;8.214;2023-04-07T04:23:59;5.30;99.90
23267;DHT22;11802;53.160;8.214;2023-04-07T04:26:25;5.20;1.00
23267;DHT22;11802;53.160;8.214;2023-04-07T04:28:50;5.20;1.00
23267;DHT22;11802;53.160;8.214;2023-04-07T04:31:17;5.20;99.90
23267;DHT22;11802;53.160;8.214;2023-04-07T04:33:43;5.10;1.00
23267;DHT22;11802;53.160;8.214;2023-04-07T04:36:09;5.10;1.00
23267;DHT22;11802;53.160;8.214;2023-04-07T04:38:35;5.00;1.00
23267;DHT22;11802;53.160;8.214;2023-04-07T04:41:01;5.00;1.00
23267;DHT22;11802;53.160;8.214;2023-04-07T04:43:26;5.00;1.00
23267;DHT22;11802;53.160;8.214;2023-04-07T04:45:52;4.90;1.00
23267;DHT22;11802;53.160;8.214;2023-04-07T04:48:18;4.90;99.90
23267;DHT22;11802;53.160;8.214;2023-04-07T04:50:43;4.90;4.00
23267;DHT22;11802;53.160;8.214;2023-04-07T04:53:12;4.80;99.90
23267;DHT22;11802;53.160;8.214;2023-04-07T04:55:37;4.90;99.90
23267;DHT22;11802;53.160;8.214;2023-04-07T04:58:05;4.80;99.90
23267;DHT22;11802;53.160;8.214;2023-04-07T05:00:30;4.70;99.90
23267;DHT22;11802;53.160;8.214;2023-04-07T05:02:56;4.80;99.90
23267;DHT22;11802;53.160;8.214;2023-04-07T05:05:21;4.80;99.90
23267;DHT22;11802;53.160;8.214;2023-04-07T05:07:47;4.90;5.10
23267;DHT22;11802;53.160;8.214;2023-04-07T05:10:12;5.00;1.00
23267;DHT22;11802;53.160;8.214;2023-04-07T05:12:38;5.00;1.00
23267;DHT22;11802;53.160;8.214;2023-04-07T05:15:05;5.30;1.00
23267;DHT22;11802;53.160;8.214;2023-04-07T05:17:30;5.30;1.00
23267;DHT22;11802;53.160;8.214;2023-04-07T05:19:56;5.40;1.00
23267;DHT22;11802;53.160;8.214;2023-04-07T05:22:21;5.60;99.90
23267;DHT22;11802;53.160;8.214;2023-04-07T05:24:47;5.70;1.00
23267;DHT22;11802;53.160;8.214;2023-04-07T05:27:12;5.70;1.00
23267;DHT22;11802;53.160;8.214;2023-04-07T05:29:38;5.60;1.00
23267;DHT22;11802;53.160;8.214;2023-04-07T05:32:04;5.70;99.90
23267;DHT22;11802;53.160;8.214;2023-04-07T05:34:30;5.60;1.00
23267;DHT22;11802;53.160;8.214;2023-04-07T05:36:56;5.70;99.90
23267;DHT22;11802;53.160;8.214;2023-04-07T05:39:21;5.80;99.90
23267;DHT22;11802;53.160;8.214;2023-04-07T05:41:47;6.10;1.00
23267;DHT22;11802;53.160;8.214;2023-04-07T05:44:12;6.30;99.90
23267;DHT22;11802;53.160;8.214;2023-04-07T05:46:38;6.20;3.00
23267;DHT22;11802;53.160;8.214;2023-04-07T05:49:03;5.90;1.00
23267;DHT22;11802;53.160;8.214;2023-04-07T05:51:29;6.00;1.00
23267;DHT22;11802;53.160;8.214;2023-04-07T05:53:55;6.30;1.00
23267;DHT22;11802;53.160;8.214;2023-04-07T05:56:21;6.20;1.00
23267;DHT22;11802;53.160;8.214;2023-04-07T05:58:46;6.40;1.00
23267;DHT22;11802;53.160;8.214;2023-04-07T06:01:12;6.30;1.00
23267;DHT22;11802;53.160;8.214;2023-04-07T06:03:37;6.40;1.00
23267;DHT22;11802;53.160;8.214;2023-04-07T06:06:05;6.80;1.00
23267;DHT22;11802;53.160;8.214;2023-04-07T06:08:31;7.10;1.00
23267;DHT22;11802;53.160;8.214;2023-04-07T06:10:56;7.10;1.00
23267;DHT22;11802;53.160;8.214;2023-04-07T06:13:22;7.20;99.90
23267;DHT22;11802;53.160;8.214;2023-04-07T06:15:47;7.00;1.00
23267;DHT22;11802;53.160;8.214;2023-04-07T06:18:14;7.00;1.00
23267;DHT22;11802;53.160;8.214;2023-04-07T06:20:39;7.20;1.00
23267;DHT22;11802;53.160;8.214;2023-04-07T06:23:05;7.60;99.90
23267;DHT22;11802;53.160;8.214;2023-04-07T06:25:31;8.10;1.00
23267;DHT22;11802;53.160;8.214;2023-04-07T06:27:57;9.10;1.00
23267;DHT22;11802;53.160;8.214;2023-04-07T06:30:22;9.80;99.90
23267;DHT22;11802;53.160;8.214;2023-04-07T06:32:48;10.20;99.90
23267;DHT22;11802;53.160;8.214;2023-04-07T06:35:13;10.30;1.00
23267;DHT22;11802;53.160;8.214;2023-04-07T06:37:39;10.80;1.00
23267;DHT22;11802;53.160;8.214;2023-04-07T06:40:06;11.50;1.00
23267;DHT22;11802;53.160;8.214;2023-04-07T06:42:32;11.50;1.00
23267;DHT22;11802;53.160;8.214;2023-04-07T06:44:57;11.80;1.00
23267;DHT22;11802;53.160;8.214;2023-04-07T06:47:23;11.80;1.00
23267;DHT22;11802;53.160;8.214;2023-04-07T06:49:48;11.90;1.00
23267;DHT22;11802;53.160;8.214;2023-04-07T06:52:14;11.90;1.00
23267;DHT22;11802;53.160;8.214;2023-04-07T06:54:39;12.40;1.00
23267;DHT22;11802;53.160;8.214;2023-04-07T06:57:05;12.30;1.00
23267;DHT22;11802;53.160;8.214;2023-04-07T06:59:39;12.10;1.00
23267;DHT22;11802;53.160;8.214;2023-04-07T07:02:04;12.70;1.00
23267;DHT22;11802;53.160;8.214;2023-04-07T07:04:32;13.50;1.00
23267;DHT22;11802;53.160;8.214;2023-04-07T07:06:58;13.90;1.00
23267;DHT22;11802;53.160;8.214;2023-04-07T07:09:23;12.90;1.00
23267;DHT22;11802;53.160;8.214;2023-04-07T07:11:49;13.00;1.00
23267;DHT22;11802;53.160;8.214;2023-04-07T07:14:14;13.40;1.00
23267;DHT22;11802;53.160;8.214;2023-04-07T07:16:40;14.40;1.00
23267;DHT22;11802;53.160;8.214;2023-04-07T07:19:05;15.10;99.90
23267;DHT22;11802;53.160;8.214;2023-04-07T07:21:32;14.50;99.90
23267;DHT22;11802;53.160;8.214;2023-04-07T07:23:58;13.00;1.00
23267;DHT22;11802;53.160;8.214;2023-04-07T07:26:23;13.10;1.00
23267;DHT22;11802;53.160;8.214;2023-04-07T07:28:49;14.30;1.00
23267;DHT22;11802;53.160;8.214;2023-04-07T07:31:14;14.30;99.90
23267;DHT22;11802;53.160;8.214;2023-04-07T07:33:41;14.20;99.90
23267;DHT22;11802;53.160;8.214;2023-04-07T07:36:08;14.10;99.90
23267;DHT22;11802;53.160;8.214;2023-04-07T07:38:34;13.50;99.90
23267;DHT22;11802;53.160;8.214;2023-04-07T07:40:59;13.90;99.90
23267;DHT22;11802;53.160;8.214;2023-04-07T07:43:25;14.50;99.90
23267;DHT22;11802;53.160;8.214;2023-04-07T07:45:52;14.80;99.90
23267;DHT22;11802;53.160;8.214;2023-04-07T07:48:17;15.20;99.90
23267;DHT22;11802;53.160;8.214;2023-04-07T07:50:43;15.20;99.90
23267;DHT22;11802;53.160;8.214;2023-04-07T07:53:09;15.80;99.90
23267;DHT22;11802;53.160;8.214;2023-04-07T07:55:35;15.90;99.90
23267;DHT22;11802;53.160;8.214;2023-04-07T07:58:00;15.60;99.90
23267;DHT22;11802;53.160;8.214;2023-04-07T08:00:26;15.50;99.90
23267;DHT22;11802;53.160;8.214;2023-04-07T08:02:52;15.90;99.90
23267;DHT22;11802;53.160;8.214;2023-04-07T08:05:18;16.90;99.90
23267;DHT22;11802;53.160;8.214;2023-04-07T08:07:43;16.60;99.90
23267;DHT22;11802;53.160;8.214;2023-04-07T08:10:09;15.70;99.90
23267;DHT22;11802;53.160;8.214;2023-04-07T08:12:35;15.70;99.90
23267;DHT22;11802;53.160;8.214;2023-04-07T08:15:00;16.30;99.90
23267;DHT22;11802;53.160;8.214;2023-04-07T08:17:27;16.20;99.90
23267;DHT22;11802;53.160;8.214;2023-04-07T08:19:52;16.50;99.90
23267;DHT22;11802;53.160;8.214;2023-04-07T08:22:17;17.10;99.90
23267;DHT22;11802;53.160;8.214;2023-04-07T08:24:45;16.70;99.90
23267;DHT22;11802;53.160;8.214;2023-04-07T08:27:12;16.20;99.90
23267;DHT22;11802;53.160;8.214;2023-04-07T08:29:37;17.20;99.90
23267;DHT22;11802;53.160;8.214;2023-04-07T08:32:03;17.30;99.90
23267;DHT22;11802;53.160;8.214;2023-04-07T08:34:28;16.30;99.90
23267;DHT22;11802;53.160;8.214;2023-04-07T08:36:54;16.30;99.90
23267;DHT22;11802;53.160;8.214;2023-04-07T08:39:19;16.70;99.90
23267;DHT22;11802;53.160;8.214;2023-04-07T08:41:47;17.40;99.90
23267;DHT22;11802;53.160;8.214;2023-04-07T08:44:14;17.00;99.90
23267;DHT22;11802;53.160;8.214;2023-04-07T08:46:40;17.10;99.90
23267;DHT22;11802;53.160;8.214;2023-04-07T08:49:08;17.10;99.90
23267;DHT22;11802;53.160;8.214;2023-04-07T08:51:36;16.90;99.90
23267;DHT22;11802;53.160;8.214;2023-04-07T08:54:13;17.80;99.90
23267;DHT22;11802;53.160;8.214;2023-04-07T08:56:40;17.50;99.90
23267;DHT22;11802;53.160;8.214;2023-04-07T08:59:07;17.10;99.90
23267;DHT22;11802;53.160;8.214;2023-04-07T09:01:34;16.80;99.90
23267;DHT22;11802;53.160;8.214;2023-04-07T09:04:01;16.30;99.90
23267;DHT22;11802;53.160;8.214;2023-04-07T09:06:29;15.70;99.90
23267;DHT22;11802;53.160;8.214;2023-04-07T09:08:59;15.70;99.90
23267;DHT22;11802;53.160;8.214;2023-04-07T09:11:29;15.60;99.90
23267;DHT22;11802;53.160;8.214;2023-04-07T09:13:55;15.70;99.90
23267;DHT22;11802;53.160;8.214;2023-04-07T09:16:21;15.20;99.90
23267;DHT22;11802;53.160;8.214;2023-04-07T09:18:48;15.30;99.90
23267;DHT22;11802;53.160;8.214;2023-04-07T09:21:13;15.80;99.90
23267;DHT22;11802;53.160;8.214;2023-04-07T09:23:41;15.50;99.90
23267;DHT22;11802;53.160;8.214;2023-04-07T09:26:22;15.50;99.90
23267;DHT22;11802;53.160;8.214;2023-04-07T09:28:53;15.80;99.90
23267;DHT22;11802;53.160;8.214;2023-04-07T09:31:20;15.50;99.90
23267;DHT22;11802;53.160;8.214;2023-04-07T09:33:48;15.70;99.90
23267;DHT22;11802;53.160;8.214;2023-04-07T09:36:13;15.50;99.90
23267;DHT22;11802;53.160;8.214;2023-04-07T09:38:39;15.30;99.90
23267;DHT22;11802;53.160;8.214;2023-04-07T09:41:10;15.10;99.90
23267;DHT22;11802;53.160;8.214;2023-04-07T09:43:42;15.20;99.90
23267;DHT22;11802;53.160;8.214;2023-04-07T09:46:14;15.60;99.90
23267;DHT22;11802;53.160;8.214;2023-04-07T09:48:41;15.30;99.90
23267;DHT22;11802;53.160;8.214;2023-04-07T09:51:15;16.10;99.90
23267;DHT22;11802;53.160;8.214;2023-04-07T09:53:44;16.30;99.90
23267;DHT22;11802;53.160;8.214;2023-04-07T09:56:12;16.00;99.90
23267;DHT22;11802;53.160;8.214;2023-04-07T09:58:38;15.50;99.90
23267;DHT22;11802;53.160;8.214;2023-04-07T10:01:06;15.60;99.90
23267;DHT22;11802;53.160;8.214;2023-04-07T10:03:36;15.60;99.90
23267;DHT22;11802;53.160;8.214;2023-04-07T10:06:03;15.30;99.90
23267;DHT22;11802;53.160;8.214;2023-04-07T10:08:32;14.90;99.90
23267;DHT22;11802;53.160;8.214;2023-04-07T10:10:59;14.80;99.90
23267;DHT22;11802;53.160;8.214;2023-04-07T10:13:26;15.20;99.90
23267;DHT22;11802;53.160;8.214;2023-04-07T10:15:52;14.50;99.90
23267;DHT22;11802;53.160;8.214;2023-04-07T10:18:19;15.10;99.90
23267;DHT22;11802;53.160;8.214;2023-04-07T10:20:47;15.30;99.90
23267;DHT22;11802;53.160;8.214;2023-04-07T10:26:19;15.00;99.90
23267;DHT22;11802;53.160;8.214;2023-04-07T10:28:50;15.30;99.90
23267;DHT22;11802;53.160;8.214;2023-04-07T10:31:18;15.50;99.90
23267;DHT22;11802;53.160;8.214;2023-04-07T10:33:52;15.50;99.90
23267;DHT22;11802;53.160;8.214;2023-04-07T10:36:18;15.80;99.90
23267;DHT22;11802;53.160;8.214;2023-04-07T10:41:36;15.90;99.90
23267;DHT22;11802;53.160;8.214;2023-04-07T10:44:03;15.80;99.90
23267;DHT22;11802;53.160;8.214;2023-04-07T10:47:01;16.10;99.90
23267;DHT22;11802;53.160;8.214;2023-04-07T10:49:27;16.20;99.90
23267;DHT22;11802;53.160;8.214;2023-04-07T10:54:38;16.70;99.90
23267;DHT22;11802;53.160;8.214;2023-04-07T10:57:11;16.30;99.90
23267;DHT22;11802;53.160;8.214;2023-04-07T10:59:39;16.10;99.90
23267;DHT22;11802;53.160;8.214;2023-04-07T11:04:44;15.90;99.90
23267;DHT22;11802;53.160;8.214;2023-04-07T11:07:11;15.60;99.90
23267;DHT22;11802;53.160;8.214;2023-04-07T11:09:37;15.10;99.90
23267;DHT22;11802;53.160;8.214;2023-04-07T11:12:03;15.20;99.90
23267;DHT22;11802;53.160;8.214;2023-04-07T11:14:30;15.40;99.90
23267;DHT22;11802;53.160;8.214;2023-04-07T11:16:58;15.20;99.90
23267;DHT22;11802;53.160;8.214;2023-04-07T11:19:23;15.40;99.90
23267;DHT22;11802;53.160;8.214;2023-04-07T11:21:49;15.40;99.90
23267;DHT22;11802;53.160;8.214;2023-04-07T11:24:34;15.70;99.90
23267;DHT22;11802;53.160;8.214;2023-04-07T11:27:02;15.60;99.90
23267;DHT22;11802;53.160;8.214;2023-04-07T11:29:28;15.10;99.90
23267;DHT22;11802;53.160;8.214;2023-04-07T11:31:59;15.20;99.90
23267;DHT22;11802;53.160;8.214;2023-04-07T11:34:29;15.30;99.90
23267;DHT22;11802;53.160;8.214;2023-04-07T11:36:55;15.20;99.90
23267;DHT22;11802;53.160;8.214;2023-04-07T11:39:24;15.00;99.90
23267;DHT22;11802;53.160;8.214;2023-04-07T11:41:52;14.90;99.90
23267;DHT22;11802;53.160;8.214;2023-04-07T11:44:18;14.90;99.90
23267;DHT22;11802;53.160;8.214;2023-04-07T11:47:00;14.70;99.90
23267;DHT22;11802;53.160;8.214;2023-04-07T11:49:29;14.80;99.90
23267;DHT22;11802;53.160;8.214;2023-04-07T11:52:02;15.00;99.90
23267;DHT22;11802;53.160;8.214;2023-04-07T11:54:45;15.00;99.90
23267;DHT22;11802;53.160;8.214;2023-04-07T11:57:27;14.60;99.90
23267;DHT22;11802;53.160;8.214;2023-04-07T12:00:10;14.60;99.90
23267;DHT22;11802;53.160;8.214;2023-04-07T12:02:36;14.60;99.90
23267;DHT22;11802;53.160;8.214;2023-04-07T12:05:03;14.90;99.90
23267;DHT22;11802;53.160;8.214;2023-04-07T12:07:28;15.20;99.90
23267;DHT22;11802;53.160;8.214;2023-04-07T12:09:54;15.10;99.90
23267;DHT22;11802;53.160;8.214;2023-04-07T12:12:29;15.00;99.90
23267;DHT22;11802;53.160;8.214;2023-04-07T12:14:57;14.90;99.90
23267;DHT22;11802;53.160;8.214;2023-04-07T12:17:24;14.80;99.90
23267;DHT22;11802;53.160;8.214;2023-04-07T12:19:51;14.80;99.90
23267;DHT22;11802;53.160;8.214;2023-04-07T12:22:18;14.50;99.90
23267;DHT22;11802;53.160;8.214;2023-04-07T12:24:43;14.50;99.90
23267;DHT22;11802;53.160;8.214;2023-04-07T12:27:09;14.40;99.90
23267;DHT22;11802;53.160;8.214;2023-04-07T12:29:35;14.40;99.90
23267;DHT22;11802;53.160;8.214;2023-04-07T12:32:02;14.40;99.90
23267;DHT22;11802;53.160;8.214;2023-04-07T12:34:28;14.50;99.90
23267;DHT22;11802;53.160;8.214;2023-04-07T12:36:53;14.50;99.90
23267;DHT22;11802;53.160;8.214;2023-04-07T12:39:20;14.80;99.90
23267;DHT22;11802;53.160;8.214;2023-04-07T12:41:45;14.90;99.90
23267;DHT22;11802;53.160;8.214;2023-04-07T12:44:12;14.90;99.90
23267;DHT22;11802;53.160;8.214;2023-04-07T12:46:38;14.70;99.90
23267;DHT22;11802;53.160;8.214;2023-04-07T12:49:04;14.70;99.90
23267;DHT22;11802;53.160;8.214;2023-04-07T12:51:30;14.70;99.90
23267;DHT22;11802;53.160;8.214;2023-04-07T12:53:57;14.60;99.90
23267;DHT22;11802;53.160;8.214;2023-04-07T12:56:25;14.60;99.90
23267;DHT22;11802;53.160;8.214;2023-04-07T12:58:52;14.40;99.90
23267;DHT22;11802;53.160;8.214;2023-04-07T13:01:18;14.40;99.90
23267;DHT22;11802;53.160;8.214;2023-04-07T13:03:43;14.60;99.90
23267;DHT22;11802;53.160;8.214;2023-04-07T13:06:09;14.70;99.90
23267;DHT22;11802;53.160;8.214;2023-04-07T13:08:36;14.70;99.90
23267;DHT22;11802;53.160;8.214;2023-04-07T13:11:02;14.80;99.90
23267;DHT22;11802;53.160;8.214;2023-04-07T13:13:27;14.70;99.90
23267;DHT22;11802;53.160;8.214;2023-04-07T13:15:53;14.70;99.90
23267;DHT22;11802;53.160;8.214;2023-04-07T13:18:19;14.60;99.90
23267;DHT22;11802;53.160;8.214;2023-04-07T13:20:45;14.50;99.90
23267;DHT22;11802;53.160;8.214;2023-04-07T13:23:10;14.50;99.90
23267;DHT22;11802;53.160;8.214;2023-04-07T13:25:36;14.50;99.90
23267;DHT22;11802;53.160;8.214;2023-04-07T13:28:02;14.40;99.90
23267;DHT22;11802;53.160;8.214;2023-04-07T13:30:28;14.30;99.90
23267;DHT22;11802;53.160;8.214;2023-04-07T13:32:53;14.20;99.90
23267;DHT22;11802;53.160;8.214;2023-04-07T13:35:19;14.10;99.90
23267;DHT22;11802;53.160;8.214;2023-04-07T13:37:44;14.30;99.90
23267;DHT22;11802;53.160;8.214;2023-04-07T13:40:10;14.40;99.90
23267;DHT22;11802;53.160;8.214;2023-04-07T13:42:37;14.50;99.90
23267;DHT22;11802;53.160;8.214;2023-04-07T13:45:03;14.50;99.90
23267;DHT22;11802;53.160;8.214;2023-04-07T13:47:29;14.30;99.90
23267;DHT22;11802;53.160;8.214;2023-04-07T13:50:01;14.40;99.90
23267;DHT22;11802;53.160;8.214;2023-04-07T13:52:27;14.40;99.90
23267;DHT22;11802;53.160;8.214;2023-04-07T13:54:53;14.50;99.90
23267;DHT22;11802;53.160;8.214;2023-04-07T13:57:19;14.60;99.90
23267;DHT22;11802;53.160;8.214;2023-04-07T13:59:46;14.60;99.90
23267;DHT22;11802;53.160;8.214;2023-04-07T14:02:12;14.60;99.90
23267;DHT22;11802;53.160;8.214;2023-04-07T14:04:38;14.50;99.90
23267;DHT22;11802;53.160;8.214;2023-04-07T14:07:04;14.40;99.90
23267;DHT22;11802;53.160;8.214;2023-04-07T14:09:29;14.20;99.90
23267;DHT22;11802;53.160;8.214;2023-04-07T14:11:55;14.30;99.90
23267;DHT22;11802;53.160;8.214;2023-04-07T14:14:21;14.40;99.90
23267;DHT22;11802;53.160;8.214;2023-04-07T14:16:47;14.50;99.90
23267;DHT22;11802;53.160;8.214;2023-04-07T14:19:16;14.40;99.90
23267;DHT22;11802;53.160;8.214;2023-04-07T14:21:41;14.20;99.90
23267;DHT22;11802;53.160;8.214;2023-04-07T14:24:07;14.10;99.90
23267;DHT22;11802;53.160;8.214;2023-04-07T14:26:32;14.00;99.90
23267;DHT22;11802;53.160;8.214;2023-04-07T14:28:58;14.00;99.90
23267;DHT22;11802;53.160;8.214;2023-04-07T14:31:23;14.10;99.90
23267;DHT22;11802;53.160;8.214;2023-04-07T14:33:49;14.10;99.90
23267;DHT22;11802;53.160;8.214;2023-04-07T14:36:14;14.20;99.90
23267;DHT22;11802;53.160;8.214;2023-04-07T14:38:42;14.20;99.90
23267;DHT22;11802;53.160;8.214;2023-04-07T14:41:08;14.30;99.90
23267;DHT22;11802;53.160;8.214;2023-04-07T14:43:34;14.20;99.90
23267;DHT22;11802;53.160;8.214;2023-04-07T14:46:00;14.20;99.90
23267;DHT22;11802;53.160;8.214;2023-04-07T14:48:26;14.10;99.90
23267;DHT22;11802;53.160;8.214;2023-04-07T14:50:51;14.00;99.90
23267;DHT22;11802;53.160;8.214;2023-04-07T14:53:17;14.10;99.90
23267;DHT22;11802;53.160;8.214;2023-04-07T14:55:42;14.00;99.90
23267;DHT22;11802;53.160;8.214;2023-04-07T14:58:08;13.90;99.90
23267;DHT22;11802;53.160;8.214;2023-04-07T15:00:35;13.90;99.90
23267;DHT22;11802;53.160;8.214;2023-04-07T15:03:00;13.80;99.90
23267;DHT22;11802;53.160;8.214;2023-04-07T15:05:26;13.90;99.90
23267;DHT22;11802;53.160;8.214;2023-04-07T15:07:53;14.00;99.90
23267;DHT22;11802;53.160;8.214;2023-04-07T15:10:20;13.90;99.90
23267;DHT22;11802;53.160;8.214;2023-04-07T15:12:45;14.00;99.90
23267;DHT22;11802;53.160;8.214;2023-04-07T15:15:12;13.80;99.90
23267;DHT22;11802;53.160;8.214;2023-04-07T15:17:38;13.70;99.90
23267;DHT22;11802;53.160;8.214;2023-04-07T15:20:04;13.70;99.90
23267;DHT22;11802;53.160;8.214;2023-04-07T15:22:29;13.80;99.90
23267;DHT22;11802;53.160;8.214;2023-04-07T15:24:55;13.80;99.90
23267;DHT22;11802;53.160;8.214;2023-04-07T15:27:20;13.80;99.90
23267;DHT22;11802;53.160;8.214;2023-04-07T15:29:46;13.80;99.90
23267;DHT22;11802;53.160;8.214;2023-04-07T15:32:12;13.70;99.90
23267;DHT22;11802;53.160;8.214;2023-04-07T15:34:37;13.70;99.90
23267;DHT22;11802;53.160;8.214;2023-04-07T15:37:03;13.70;99.90
23267;DHT22;11802;53.160;8.214;2023-04-07T15:39:29;13.70;99.90
23267;DHT22;11802;53.160;8.214;2023-04-07T15:41:54;13.60;99.90
23267;DHT22;11802;53.160;8.214;2023-04-07T15:44:22;13.70;99.90
23267;DHT22;11802;53.160;8.214;2023-04-07T15:46:47;13.70;99.90
23267;DHT22;11802;53.160;8.214;2023-04-07T15:49:13;13.60;99.90
23267;DHT22;11802;53.160;8.214;2023-04-07T15:51:44;13.60;99.90